Time;durP1;ratioP1;P1;durP2;ratioP2;P2;SDS_P1;SDS_P2;PMS_P1;PMS_P2;Temp;Humidity;BMP_temperature;BMP_pressure;BME280_temperature;BME280_humidity;BME280_pressure;Samples;Min_cycle;Max_cycle;Signal;HPM_P1;HPM_P2
2023/03/21 00:01:07;;;;;;;1.35;0.90;;;;;;;9.67;100.00;100346.31;4949212;28;20074;-80
2023/03/21 00:03:36;;;;;;;0.93;0.70;;;;;;;9.62;100.00;100334.97;4948350;28;20050;-79
2023/03/21 00:06:08;;;;;;;0.52;0.50;;;;;;;9.65;100.00;100347.97;4950576;28;20058;-81
2023/03/21 00:08:36;;;;;;;0.50;0.40;;;;;;;9.64;100.00;100351.38;4944555;29;20043;-78
2023/03/21 00:11:08;;;;;;;0.60;0.40;;;;;;;9.62;100.00;100342.72;4945025;28;20054;-80
2023/03/21 00:13:41;;;;;;;1.33;0.70;;;;;;;9.64;100.00;100351.38;4945910;28;20129;-77
2023/03/21 00:16:14;;;;;;;1.95;0.65;;;;;;;9.66;100.00;100349.72;4950409;28;20071;-79
2023/03/21 00:18:45;;;;;;;1.00;0.50;;;;;;;9.69;100.00;100349.81;4943018;28;20130;-78
2023/03/21 00:21:16;;;;;;;0.30;0.30;;;;;;;9.77;100.00;100345.72;4945394;28;20051;-80
2023/03/21 00:23:46;;;;;;;0.52;0.50;;;;;;;9.83;100.00;100343.28;4947754;28;20062;-81
2023/03/21 00:26:16;;;;;;;1.00;0.68;;;;;;;9.90;100.00;100340.88;4942120;29;20058;-81
2023/03/21 00:28:45;;;;;;;0.90;0.60;;;;;;;9.96;100.00;100341.88;4941797;29;20046;-78
2023/03/21 00:31:16;;;;;;;1.95;0.50;;;;;;;10.02;100.00;100343.75;4941850;29;20078;-77
2023/03/21 00:33:45;;;;;;;0.40;0.35;;;;;;;10.05;100.00;100336.06;4946186;28;20082;-81
2023/03/21 00:36:14;;;;;;;0.57;0.22;;;;;;;10.01;100.00;100336.81;4945765;29;20534;-77
2023/03/21 00:38:43;;;;;;;0.17;0.10;;;;;;;10.03;100.00;100335.16;4944631;29;20134;-78
2023/03/21 00:41:15;;;;;;;1.25;0.15;;;;;;;10.05;100.00;100333.50;4941029;29;20062;-77
2023/03/21 00:43:44;;;;;;;0.00;0.00;;;;;;;10.08;100.00;100328.41;4942855;29;20067;-76
2023/03/21 00:46:14;;;;;;;0.47;0.20;;;;;;;10.15;100.00;100329.44;4942806;29;20067;-77
2023/03/21 00:48:48;;;;;;;0.00;0.00;;;;;;;10.06;98.00;100330.09;4941205;29;20516;-76
2023/03/21 00:51:25;;;;;;;0.43;0.13;;;;;;;10.12;99.48;100337.97;4945658;29;20564;-76
2023/03/21 00:53:56;;;;;;;0.10;0.10;;;;;;;10.07;99.57;100342.16;4944276;29;20064;-77
2023/03/21 00:56:29;;;;;;;0.10;0.10;;;;;;;10.01;100.00;100349.75;4941253;29;20057;-78
2023/03/21 00:58:57;;;;;;;0.60;0.10;;;;;;;9.89;100.00;100334.81;4940597;29;20146;-77
2023/03/21 01:01:34;;;;;;;0.10;0.10;;;;;;;9.88;100.00;100329.63;4946841;29;20059;-77
2023/03/21 01:04:09;;;;;;;0.00;0.00;;;;;;;9.92;100.00;100334.00;4946051;29;20055;-77
2023/03/21 01:06:51;;;;;;;0.35;0.10;;;;;;;9.93;100.00;100339.22;4945896;29;20066;-78
2023/03/21 01:09:25;;;;;;;0.20;0.10;;;;;;;9.86;100.00;100333.03;4942865;29;20047;-80
2023/03/21 01:11:54;;;;;;;0.80;0.05;;;;;;;9.78;100.00;100342.31;4941932;28;20074;-78
2023/03/21 01:14:34;;;;;;;0.22;0.20;;;;;;;9.72;100.00;100338.69;4941700;29;20054;-81
2023/03/21 01:17:05;;;;;;;0.10;0.10;;;;;;;9.77;100.00;100343.13;4942621;29;20130;-79
2023/03/21 01:19:34;;;;;;;0.30;0.10;;;;;;;9.76;100.00;100341.38;4942089;29;20459;-78
2023/03/21 01:22:03;;;;;;;0.00;0.00;;;;;;;9.78;100.00;100350.06;4943415;29;20063;-81
2023/03/21 01:24:32;;;;;;;0.00;0.00;;;;;;;9.68;100.00;100348.06;4946469;28;20067;-81
2023/03/21 01:27:05;;;;;;;0.10;0.10;;;;;;;9.56;100.00;100352.91;4941949;28;20122;-80
2023/03/21 01:29:36;;;;;;;;;;;;;;;9.48;100.00;100354.38;4944072;28;20069;-81
2023/03/21 01:32:07;;;;;;;0.00;0.00;;;;;;;9.38;100.00;100359.31;4950261;28;19973;-85
2023/03/21 01:34:36;;;;;;;0.00;0.00;;;;;;;9.29;100.00;100353.00;4947506;28;20051;-84
2023/03/21 01:37:06;;;;;;;0.00;0.00;;;;;;;9.28;100.00;100357.31;4944847;28;20047;-81
2023/03/21 01:39:35;;;;;;;0.00;0.00;;;;;;;9.27;100.00;100365.88;4943933;28;20092;-82
2023/03/21 01:42:04;;;;;;;0.30;0.00;;;;;;;9.24;100.00;100360.63;4944287;28;20089;-82
2023/03/21 01:44:53;;;;;;;0.10;0.00;;;;;;;9.19;100.00;100362.22;4942015;28;20048;-82
2023/03/21 01:47:24;;;;;;;0.60;0.22;;;;;;;9.17;100.00;100371.63;4942898;28;20715;-80
2023/03/21 01:49:56;;;;;;;0.10;0.10;;;;;;;9.07;100.00;100370.47;4942922;28;20607;-83
2023/03/21 01:52:33;;;;;;;0.20;0.20;;;;;;;8.97;100.00;100371.88;4938699;28;20055;-80
2023/03/21 01:55:10;;;;;;;0.22;0.20;;;;;;;8.99;100.00;100377.97;4947884;28;20054;-83
2023/03/21 01:57:43;;;;;;;0.10;0.10;;;;;;;8.94;100.00;100382.13;4948954;28;20054;-82
2023/03/21 02:00:14;;;;;;;0.30;0.30;;;;;;;8.85;100.00;100375.81;4954274;28;20055;-81
2023/03/21 02:02:54;;;;;;;0.40;0.30;;;;;;;8.87;100.00;100395.69;4950622;28;20058;-81
2023/03/21 02:05:33;;;;;;;0.47;0.20;;;;;;;8.85;100.00;100392.16;4945384;29;20058;-82
2023/03/21 02:08:06;;;;;;;0.40;0.30;;;;;;;8.84;100.00;100410.16;4944867;28;20085;-78
2023/03/21 02:10:36;;;;;;;0.47;0.35;;;;;;;8.67;100.00;100392.47;4946096;28;20717;-77
2023/03/21 02:13:08;;;;;;;0.35;0.30;;;;;;;8.73;100.00;100391.81;4941928;28;20054;-80
2023/03/21 02:15:45;;;;;;;0.52;0.38;;;;;;;8.70;100.00;100395.13;4949311;28;20154;-85
2023/03/21 02:18:32;;;;;;;0.85;0.40;;;;;;;8.66;100.00;100406.22;4948129;28;20098;-80
2023/03/21 02:21:34;;;;;;;0.75;0.40;;;;;;;8.55;100.00;100405.84;4950947;28;20055;-77
2023/03/21 02:24:44;;;;;;;0.38;0.30;;;;;;;8.50;100.00;100406.56;4951172;28;20126;-81
2023/03/21 02:27:17;;;;;;;0.45;0.35;;;;;;;8.45;100.00;100411.53;4898032;28;20056;-78
2023/03/21 02:30:16;;;;;;;0.30;0.30;;;;;;;8.35;100.00;100412.03;4964670;28;20043;-78
2023/03/21 02:33:12;;;;;;;0.10;0.10;;;;;;;8.27;100.00;100418.63;4923830;28;20615;-80
2023/03/21 02:36:05;;;;;;;0.17;0.10;;;;;;;8.16;100.00;100418.28;4966318;28;20057;-82
2023/03/21 02:38:41;;;;;;;0.20;0.10;;;;;;;8.06;100.00;100422.22;4963949;28;20125;-80
2023/03/21 02:41:17;;;;;;;0.30;0.30;;;;;;;8.02;100.00;100425.56;4962474;28;20441;-82
2023/03/21 02:43:50;;;;;;;0.43;0.20;;;;;;;8.04;100.00;100423.91;4965801;28;20046;-78
2023/03/21 02:46:23;;;;;;;0.57;0.32;;;;;;;7.99;100.00;100428.00;4962921;28;20059;-81
2023/03/21 02:48:56;;;;;;;0.22;0.13;;;;;;;7.95;100.00;100431.31;4965897;28;20054;-82
2023/03/21 02:51:27;;;;;;;0.30;0.20;;;;;;;7.90;100.00;100428.59;4962961;28;20047;-80
2023/03/21 02:54:03;;;;;;;0.10;0.10;;;;;;;7.85;100.00;100431.81;4966123;28;20678;-83
2023/03/21 02:56:33;;;;;;;0.75;0.25;;;;;;;7.86;100.00;100436.16;4966800;28;20101;-79
2023/03/21 02:59:05;;;;;;;0.20;0.20;;;;;;;7.81;100.00;100443.72;4959240;28;20078;-78
2023/03/21 03:01:35;;;;;;;0.60;0.32;;;;;;;7.78;100.00;100446.16;4960725;28;20047;-80
2023/03/21 03:04:04;;;;;;;0.10;0.10;;;;;;;7.80;100.00;100446.22;4962694;28;20051;-79
2023/03/21 03:06:43;;;;;;;1.75;0.30;;;;;;;7.81;100.00;100458.28;4965279;28;20121;-78
2023/03/21 03:09:31;;;;;;;0.10;0.10;;;;;;;7.81;100.00;100456.59;4962264;28;20058;-78
2023/03/21 03:12:08;;;;;;;0.57;0.10;;;;;;;7.74;100.00;100465.81;4964684;28;20138;-78
2023/03/21 03:14:52;;;;;;;0.00;0.00;;;;;;;7.74;100.00;100468.38;4964033;28;20066;-78
2023/03/21 03:17:31;;;;;;;0.10;0.10;;;;;;;7.80;100.00;100471.97;4965666;28;20106;-78
2023/03/21 03:20:18;;;;;;;1.10;0.10;;;;;;;7.83;100.00;100477.22;4961227;28;20043;-78
2023/03/21 03:22:55;;;;;;;0.25;0.10;;;;;;;7.81;100.00;100471.16;4964180;28;20050;-80
2023/03/21 03:25:30;;;;;;;0.28;0.15;;;;;;;7.74;100.00;100459.75;4965937;28;20124;-83
2023/03/21 03:28:02;;;;;;;0.03;0.03;;;;;;;7.85;100.00;100470.44;4969100;28;20054;-85
2023/03/21 03:30:35;;;;;;;0.25;0.10;;;;;;;7.85;100.00;100467.88;4963882;28;20134;-82
2023/03/21 03:33:07;;;;;;;0.45;0.10;;;;;;;7.87;100.00;100477.41;4965204;28;20110;-87
2023/03/21 03:35:36;;;;;;;0.68;0.25;;;;;;;7.90;100.00;100477.53;4965012;28;20051;-88
2023/03/21 03:38:07;;;;;;;0.08;0.05;;;;;;;7.93;100.00;100481.91;4962165;28;20429;-79
2023/03/21 03:40:43;;;;;;;0.10;0.08;;;;;;;7.94;100.00;100481.94;4961377;28;20055;-81
2023/03/21 03:43:16;;;;;;;0.55;0.10;;;;;;;7.95;100.00;100485.44;4964300;28;20046;-83
2023/03/21 03:45:50;;;;;;;0.00;0.00;;;;;;;7.93;100.00;100480.19;4964933;28;20054;-80
2023/03/21 03:48:26;;;;;;;0.25;0.10;;;;;;;7.95;100.00;100490.56;4965359;28;20053;-83
2023/03/21 03:51:01;;;;;;;0.70;0.30;;;;;;;7.94;100.00;100493.97;4967433;28;20057;-83
2023/03/21 03:53:35;;;;;;;0.00;0.00;;;;;;;7.88;96.97;100496.31;4966702;28;20046;-83
2023/03/21 03:56:11;;;;;;;0.20;0.10;;;;;;;7.89;98.12;100490.34;4969162;28;20126;-87
2023/03/21 03:58:41;;;;;;;0.43;0.22;;;;;;;7.86;96.94;100488.53;4965809;28;20062;-82
2023/03/21 04:01:09;;;;;;;0.20;0.13;;;;;;;7.85;97.67;100488.47;4961241;28;20104;-75
2023/03/21 04:03:40;;;;;;;1.25;0.25;;;;;;;7.79;96.55;100477.94;4964243;28;20058;-77
2023/03/21 04:06:10;;;;;;;1.02;0.30;;;;;;;7.85;96.47;100489.34;4963010;28;20054;-83
2023/03/21 04:08:41;;;;;;;0.10;0.10;;;;;;;7.83;94.70;100490.13;4964004;28;20049;-80
2023/03/21 04:11:14;;;;;;;0.80;0.10;;;;;;;7.79;95.67;100488.25;4965118;28;20055;-79
2023/03/21 04:13:43;;;;;;;0.20;0.10;;;;;;;7.69;96.04;100482.75;4962876;28;20051;-79
2023/03/21 04:16:13;;;;;;;0.57;0.20;;;;;;;7.73;94.70;100494.06;4965532;28;20483;-77
2023/03/21 04:18:41;;;;;;;1.45;0.20;;;;;;;7.75;94.96;100513.03;4964631;28;20054;-80
2023/03/21 04:21:11;;;;;;;1.45;0.28;;;;;;;7.74;95.80;100499.28;4964201;28;20113;-83
2023/03/21 04:23:40;;;;;;;0.30;0.20;;;;;;;7.76;99.55;100501.88;4963557;28;20107;-82
2023/03/21 04:26:10;;;;;;;0.50;0.20;;;;;;;7.74;98.55;100507.00;4964487;28;20054;-80
2023/03/21 04:28:40;;;;;;;0.20;0.20;;;;;;;7.75;99.73;100508.75;4961408;28;20066;-76
2023/03/21 04:31:09;;;;;;;0.88;0.30;;;;;;;7.79;100.00;100509.75;4964724;28;20531;-76
2023/03/21 04:33:40;;;;;;;0.40;0.22;;;;;;;7.81;99.05;100512.34;4965886;28;20133;-79
2023/03/21 04:36:26;;;;;;;0.45;0.22;;;;;;;7.81;98.68;100512.34;4965843;28;20473;-78
2023/03/21 04:38:59;;;;;;;0.70;0.28;;;;;;;7.84;98.44;100509.91;4959410;28;20046;-86
2023/03/21 04:41:28;;;;;;;0.32;0.20;;;;;;;7.82;98.36;100508.97;4964748;28;20058;-78
2023/03/21 04:44:00;;;;;;;0.60;0.47;;;;;;;7.73;97.22;100505.22;4960172;28;20058;-84
2023/03/21 04:46:36;;;;;;;0.10;0.10;;;;;;;7.64;95.95;100506.59;4964768;28;20117;-81
2023/03/21 04:49:06;;;;;;;1.52;0.25;;;;;;;7.54;97.13;100513.97;4968639;28;20083;-82
2023/03/21 04:51:38;;;;;;;1.35;0.30;;;;;;;7.47;99.22;100505.97;4966983;28;20507;-86
2023/03/21 04:54:07;;;;;;;0.10;0.10;;;;;;;7.46;99.63;100504.19;4959425;28;20051;-82
2023/03/21 04:56:38;;;;;;;0.20;0.10;;;;;;;7.43;99.25;100504.09;4961625;28;20465;-83
2023/03/21 04:59:10;;;;;;;1.45;0.20;;;;;;;7.39;99.61;100497.06;4962113;28;20059;-82
2023/03/21 05:01:40;;;;;;;1.23;0.45;;;;;;;7.42;99.73;100507.47;4966005;28;20130;-83
2023/03/21 05:04:08;;;;;;;1.13;0.32;;;;;;;7.34;100.00;100508.06;4965880;28;20054;-81
2023/03/21 05:06:37;;;;;;;1.60;0.20;;;;;;;7.27;100.00;100508.66;4960295;28;20047;-81
2023/03/21 05:09:07;;;;;;;0.10;0.10;;;;;;;7.18;100.00;100503.16;4964701;28;20117;-81
2023/03/21 05:11:37;;;;;;;0.13;0.10;;;;;;;7.17;100.00;100510.78;4967674;28;20099;-80
2023/03/21 05:14:09;;;;;;;0.20;0.20;;;;;;;7.14;100.00;100499.56;4961032;28;20552;-83
2023/03/21 05:16:47;;;;;;;0.45;0.10;;;;;;;7.04;100.00;100499.16;4962353;28;20442;-76
2023/03/21 05:19:16;;;;;;;0.43;0.20;;;;;;;6.96;100.00;100497.97;4962597;28;20090;-78
2023/03/21 05:21:44;;;;;;;1.17;0.25;;;;;;;6.91;100.00;100497.78;4965749;28;20195;-83
2023/03/21 05:24:16;;;;;;;0.60;0.22;;;;;;;6.87;100.00;100495.91;4967950;28;20090;-84
2023/03/21 05:26:49;;;;;;;0.60;0.32;;;;;;;6.85;100.00;100503.56;4954497;28;20066;-86
2023/03/21 05:29:20;;;;;;;0.17;0.17;;;;;;;6.85;100.00;100503.56;4949828;28;20090;-83
2023/03/21 05:31:49;;;;;;;0.20;0.20;;;;;;;6.82;100.00;100500.84;4945338;28;20130;-79
2023/03/21 05:34:18;;;;;;;0.82;0.40;;;;;;;6.81;100.00;100501.69;4942545;28;20064;-78
2023/03/21 05:36:47;;;;;;;0.13;0.13;;;;;;;6.82;100.00;100503.44;4946356;28;20496;-79
2023/03/21 05:39:16;;;;;;;0.75;0.17;;;;;;;6.79;100.00;100512.72;4946724;28;20051;-81
2023/03/21 05:41:44;;;;;;;0.10;0.10;;;;;;;6.77;100.00;100515.22;4947298;28;20714;-83
2023/03/21 05:44:13;;;;;;;2.88;0.52;;;;;;;6.77;100.00;100511.78;4943743;28;20050;-81
2023/03/21 05:46:43;;;;;;;1.30;0.30;;;;;;;6.65;100.00;100495.03;4954871;28;20035;-82
2023/03/21 05:49:13;;;;;;;0.75;0.30;;;;;;;6.71;100.00;100513.31;4952519;28;20121;-81
2023/03/21 05:51:42;;;;;;;0.20;0.20;;;;;;;6.68;100.00;100512.28;4951883;28;20051;-81
2023/03/21 05:54:15;;;;;;;0.98;0.20;;;;;;;6.66;100.00;100511.34;4949470;28;20098;-81
2023/03/21 05:56:44;;;;;;;0.20;0.20;;;;;;;6.63;99.87;100508.66;4956532;28;20473;-82
2023/03/21 05:59:12;;;;;;;0.40;0.25;;;;;;;6.57;99.99;100516.97;4950792;28;20047;-80
2023/03/21 06:01:43;;;;;;;1.45;0.50;;;;;;;6.55;100.00;100520.28;4948215;28;20113;-79
2023/03/21 06:04:12;;;;;;;1.27;0.45;;;;;;;6.54;100.00;100521.13;4948654;28;20048;-80
2023/03/21 06:06:41;;;;;;;1.00;0.30;;;;;;;6.43;100.00;100506.13;4954526;28;20051;-80
2023/03/21 06:09:10;;;;;;;0.32;0.28;;;;;;;6.50;100.00;100523.56;4950743;28;20059;-80
2023/03/21 06:11:41;;;;;;;1.23;0.50;;;;;;;6.47;99.35;100525.13;4950444;28;20094;-79
2023/03/21 06:14:10;;;;;;;1.48;0.60;;;;;;;6.42;99.65;100527.50;4948554;28;20134;-81
2023/03/21 06:16:38;;;;;;;2.95;0.68;;;;;;;6.38;99.46;100529.88;4948537;28;20047;-81
2023/03/21 06:19:09;;;;;;;0.70;0.40;;;;;;;6.34;100.00;100523.72;4949228;28;20065;-80
2023/03/21 06:21:37;;;;;;;0.35;0.30;;;;;;;6.34;100.00;100523.72;4947733;28;20058;-81
2023/03/21 06:24:06;;;;;;;0.60;0.40;;;;;;;6.34;100.00;100526.28;4949815;28;20509;-80
2023/03/21 06:26:35;;;;;;;0.52;0.30;;;;;;;6.32;100.00;100534.75;4948887;28;20098;-81
2023/03/21 06:29:03;;;;;;;0.73;0.30;;;;;;;6.29;100.00;100526.09;4943425;29;20098;-81
2023/03/21 06:31:32;;;;;;;2.30;0.70;;;;;;;6.32;100.00;100534.75;4949640;28;20567;-81
2023/03/21 06:34:01;;;;;;;1.67;0.80;;;;;;;6.30;100.00;100532.13;4949877;29;20119;-81
2023/03/21 06:36:32;;;;;;;0.98;0.40;;;;;;;6.29;100.00;100533.78;4950063;28;20454;-80
2023/03/21 06:39:01;;;;;;;1.27;0.68;;;;;;;6.28;100.00;100528.63;4945376;28;20074;-81
2023/03/21 06:41:30;;;;;;;1.92;0.43;;;;;;;6.28;100.00;100533.75;4946908;28;20493;-80
2023/03/21 06:43:58;;;;;;;0.57;0.40;;;;;;;6.25;100.00;100523.31;4948814;28;20057;-79
2023/03/21 06:46:27;;;;;;;0.30;0.30;;;;;;;6.23;100.00;100524.94;4948442;28;20039;-82
2023/03/21 06:48:56;;;;;;;0.75;0.63;;;;;;;6.22;100.00;100520.63;4948649;28;20661;-80
2023/03/21 06:51:26;;;;;;;3.10;1.08;;;;;;;6.20;100.00;100522.25;4948383;28;20102;-80
2023/03/21 06:53:56;;;;;;;2.63;0.80;;;;;;;6.14;100.00;100515.16;4947273;28;20052;-81
2023/03/21 06:56:25;;;;;;;2.92;1.45;;;;;;;6.14;100.00;100514.25;4946578;29;20690;-82
2023/03/21 06:58:54;;;;;;;2.70;1.83;;;;;;;6.12;100.00;100508.22;4943582;28;20047;-83
2023/03/21 07:01:26;;;;;;;3.90;2.22;;;;;;;6.09;100.00;100514.06;4944518;29;20063;-80
2023/03/21 07:03:57;;;;;;;4.22;2.63;;;;;;;6.06;100.00;100496.84;4944675;28;20051;-80
2023/03/21 07:06:27;;;;;;;5.00;2.35;;;;;;;6.04;100.00;100503.59;4943004;28;20047;-79
2023/03/21 07:08:57;;;;;;;2.80;1.77;;;;;;;6.02;100.00;100499.22;4947086;29;20154;-81
2023/03/21 07:11:26;;;;;;;5.10;1.77;;;;;;;5.96;100.00;100499.84;4946811;28;20102;-80
2023/03/21 07:13:55;;;;;;;2.58;1.20;;;;;;;5.93;100.00;100498.78;4947892;28;20082;-78
2023/03/21 07:16:24;;;;;;;2.72;1.50;;;;;;;5.90;100.00;100499.50;4949743;28;20600;-80
2023/03/21 07:18:54;;;;;;;2.05;1.20;;;;;;;5.85;100.00;100498.44;4943038;28;20047;-81
2023/03/21 07:21:22;;;;;;;3.55;1.70;;;;;;;5.79;100.00;100500.72;4947108;28;20660;-79
2023/03/21 07:23:51;;;;;;;4.10;1.30;;;;;;;5.75;100.00;100486.00;4944673;28;20275;-79
2023/03/21 07:26:21;;;;;;;2.15;1.17;;;;;;;5.74;100.00;100491.94;4961960;28;20061;-82
2023/03/21 07:28:50;;;;;;;3.67;1.65;;;;;;;5.71;100.00;100496.97;4963892;28;20043;-82
2023/03/21 07:31:19;;;;;;;2.08;1.20;;;;;;;5.67;100.00;100489.09;4962853;28;20118;-81
2023/03/21 07:33:48;;;;;;;1.98;1.20;;;;;;;5.64;100.00;100486.41;4962977;28;20127;-81
2023/03/21 07:36:17;;;;;;;2.58;1.00;;;;;;;5.65;100.00;100493.28;4963336;28;20074;-80
2023/03/21 07:38:47;;;;;;;2.55;1.10;;;;;;;5.64;100.00;100486.41;4962138;28;20034;-81
2023/03/21 07:41:16;;;;;;;5.22;2.00;;;;;;;5.60;100.00;100481.94;4965946;28;20047;-81
2023/03/21 07:43:46;;;;;;;2.58;1.10;;;;;;;5.62;100.00;100475.19;4968889;28;20047;-81
2023/03/21 07:46:15;;;;;;;3.58;1.70;;;;;;;5.60;100.00;100479.38;4970281;28;20046;-80
2023/03/21 07:48:44;;;;;;;4.03;1.83;;;;;;;5.57;100.00;100478.38;4966598;28;20046;-81
2023/03/21 07:51:13;;;;;;;2.60;1.48;;;;;;;5.55;100.00;100473.16;4964051;28;20059;-81
2023/03/21 07:53:42;;;;;;;3.20;1.50;;;;;;;5.52;100.00;100467.00;4967081;28;20057;-81
2023/03/21 07:56:11;;;;;;;2.65;1.70;;;;;;;5.48;100.00;100468.56;4963751;28;20051;-81
2023/03/21 07:58:40;;;;;;;5.60;1.45;;;;;;;5.44;100.00;100467.53;4962818;28;20101;-81
2023/03/21 08:01:10;;;;;;;2.30;1.30;;;;;;;5.42;100.00;100469.16;4963210;28;20051;-81
2023/03/21 08:03:39;;;;;;;2.20;1.73;;;;;;;5.41;100.00;100463.97;4966009;28;20047;-80
2023/03/21 08:06:08;;;;;;;3.30;0.82;;;;;;;5.40;100.00;100463.06;4963307;28;20111;-80
2023/03/21 08:08:37;;;;;;;1.00;0.57;;;;;;;5.35;100.00;100461.13;4960284;28;20551;-82
2023/03/21 08:11:06;;;;;;;2.53;0.73;;;;;;;5.30;100.00;100452.34;4962433;28;20042;-82
2023/03/21 08:13:35;;;;;;;1.23;0.90;;;;;;;5.27;100.00;100449.59;4965441;28;20051;-82
2023/03/21 08:16:03;;;;;;;0.60;0.60;;;;;;;5.32;100.00;100460.97;4962611;28;20669;-82
2023/03/21 08:18:34;;;;;;;0.60;0.47;;;;;;;5.28;100.00;100459.06;4962876;28;20055;-80
2023/03/21 08:21:03;;;;;;;3.47;0.90;;;;;;;5.25;100.00;100457.25;4967324;28;20053;-81
2023/03/21 08:23:38;;;;;;;1.63;0.68;;;;;;;5.25;100.00;100463.25;4964693;28;20054;-82
2023/03/21 08:26:08;;;;;;;4.00;1.25;;;;;;;5.23;100.00;100462.31;4963082;28;20095;-78
2023/03/21 08:28:38;;;;;;;1.42;0.40;;;;;;;5.22;100.00;100458.00;4963401;28;20053;-80
2023/03/21 08:31:09;;;;;;;1.00;0.70;;;;;;;5.22;100.00;100459.66;4962258;28;20561;-80
2023/03/21 08:33:39;;;;;;;0.85;0.63;;;;;;;5.21;100.00;100458.78;4967467;28;20550;-80
2023/03/21 08:36:09;;;;;;;1.42;0.68;;;;;;;5.22;100.00;100451.97;4963850;28;20039;-80
2023/03/21 08:38:38;;;;;;;2.08;0.80;;;;;;;5.23;100.00;100457.16;4967555;28;20051;-81
2023/03/21 08:41:07;;;;;;;4.97;2.28;;;;;;;5.22;100.00;100460.56;4965111;28;20059;-81
2023/03/21 08:43:36;;;;;;;5.93;1.75;;;;;;;5.22;100.00;100455.44;4964418;28;20047;-81
2023/03/21 08:46:05;;;;;;;1.70;1.13;;;;;;;5.18;100.00;100458.66;4969683;28;20047;-80
2023/03/21 08:48:37;;;;;;;1.35;0.90;;;;;;;5.17;100.00;100456.88;4963686;28;20055;-82
2023/03/21 08:51:08;;;;;;;1.55;0.90;;;;;;;5.18;100.00;100462.91;4963975;28;20055;-80
2023/03/21 08:53:37;;;;;;;1.48;0.73;;;;;;;5.16;100.00;100461.97;4965258;28;20046;-81
2023/03/21 08:56:06;;;;;;;1.92;0.60;;;;;;;5.16;100.00;100459.41;4963642;28;20173;-80
2023/03/21 08:58:35;;;;;;;1.85;1.02;;;;;;;5.14;100.00;100461.00;4962691;28;20090;-81
2023/03/21 09:01:03;;;;;;;3.28;0.90;;;;;;;5.12;100.00;100460.94;4963095;28;20058;-81
2023/03/21 09:03:32;;;;;;;1.42;0.80;;;;;;;5.05;100.00;100466.56;4963548;28;20062;-82
2023/03/21 09:06:02;;;;;;;0.93;0.60;;;;;;;4.96;100.00;100471.28;4964761;28;20090;-81
2023/03/21 09:08:32;;;;;;;1.58;0.73;;;;;;;4.88;100.00;100473.50;4968927;28;20042;-80
2023/03/21 09:11:00;;;;;;;1.33;0.70;;;;;;;4.88;100.00;100472.59;4964569;28;20105;-81
2023/03/21 09:13:29;;;;;;;0.82;0.70;;;;;;;4.91;100.00;100471.06;4966066;28;20051;-81
2023/03/21 09:16:00;;;;;;;1.90;0.98;;;;;;;4.95;100.00;100466.97;4962370;28;20117;-79
2023/03/21 09:18:43;;;;;;;2.28;1.10;;;;;;;4.93;100.00;100456.63;4962476;28;20375;-80
2023/03/21 09:21:13;;;;;;;3.53;1.25;;;;;;;5.01;100.00;100464.66;4963375;28;20094;-81
2023/03/21 09:23:45;;;;;;;0.77;0.70;;;;;;;5.04;100.00;100459.72;4962207;28;20445;-80
2023/03/21 09:26:15;;;;;;;2.03;1.00;;;;;;;5.05;100.00;100448.63;4963899;28;20513;-81
2023/03/21 09:28:43;;;;;;;1.42;0.90;;;;;;;5.10;100.00;100456.53;4966245;28;20125;-80
2023/03/21 09:31:15;;;;;;;1.73;0.90;;;;;;;5.08;100.00;100446.19;4967259;28;20054;-81
2023/03/21 09:33:44;;;;;;;2.17;1.02;;;;;;;5.08;100.00;100435.94;4963559;28;20069;-79
2023/03/21 09:36:14;;;;;;;4.72;1.08;;;;;;;5.10;100.00;100444.59;4962643;28;20127;-80
2023/03/21 09:38:46;;;;;;;5.32;1.70;;;;;;;5.11;100.00;100441.22;4965891;28;20054;-82
2023/03/21 09:41:48;;;;;;;2.10;1.02;;;;;;;5.13;100.00;100443.84;4965176;28;20051;-82
2023/03/21 09:44:32;;;;;;;1.10;1.00;;;;;;;5.06;100.00;100447.81;4960352;28;20138;-83
2023/03/21 09:47:07;;;;;;;2.03;1.00;;;;;;;5.13;100.00;100448.97;4964486;28;20050;-82
2023/03/21 09:49:42;;;;;;;2.63;1.25;;;;;;;5.11;100.00;100446.34;4965238;28;20051;-82
2023/03/21 09:52:20;;;;;;;1.30;0.73;;;;;;;5.10;100.00;100443.72;4966113;28;20035;-82
2023/03/21 09:54:51;;;;;;;1.70;0.90;;;;;;;5.08;100.00;100443.63;4969824;28;20102;-81
2023/03/21 09:57:28;;;;;;;4.65;1.42;;;;;;;5.06;100.00;100436.69;4967372;28;20122;-81
2023/03/21 09:59:59;;;;;;;1.92;0.98;;;;;;;5.02;100.00;100433.13;4965036;28;20055;-80
2023/03/21 10:02:38;;;;;;;2.20;1.00;;;;;;;5.03;100.00;100433.16;4966975;28;20362;-79
2023/03/21 10:05:17;;;;;;;1.35;0.88;;;;;;;5.01;100.00;100429.66;4964322;28;20051;-80
2023/03/21 10:07:54;;;;;;;1.75;0.75;;;;;;;4.95;100.00;100421.69;4970426;28;20089;-80
2023/03/21 10:10:28;;;;;;;1.50;1.02;;;;;;;4.99;100.00;100421.03;4965353;28;20058;-80
2023/03/21 10:12:58;;;;;;;0.93;0.80;;;;;;;5.00;100.00;100416.78;4969265;28;20133;-79
2023/03/21 10:15:28;;;;;;;2.00;1.13;;;;;;;4.92;100.00;100403.56;4957725;28;20058;-79
2023/03/21 10:18:01;;;;;;;1.55;0.80;;;;;;;4.98;100.00;100413.25;4965792;28;20046;-79
2023/03/21 10:20:33;;;;;;;1.27;0.73;;;;;;;4.98;100.00;100408.13;4967067;28;20062;-80
2023/03/21 10:23:04;;;;;;;3.80;1.65;;;;;;;4.98;100.00;100409.00;4967835;28;20051;-80
2023/03/21 10:25:36;;;;;;;1.00;0.70;;;;;;;4.95;100.00;100403.75;4960739;28;20485;-79
2023/03/21 10:28:08;;;;;;;3.17;0.60;;;;;;;4.97;100.00;100409.81;4963907;28;20052;-79
2023/03/21 10:30:41;;;;;;;1.08;0.65;;;;;;;4.94;100.00;100401.97;4965764;28;20051;-79
2023/03/21 10:33:14;;;;;;;0.88;0.60;;;;;;;4.89;100.00;100397.44;4967616;28;20064;-78
2023/03/21 10:35:46;;;;;;;1.65;0.77;;;;;;;4.90;100.00;100399.19;4966908;28;20107;-79
2023/03/21 10:38:18;;;;;;;0.80;0.47;;;;;;;4.86;100.00;100398.19;4966307;28;20070;-79
2023/03/21 10:40:48;;;;;;;0.98;0.75;;;;;;;4.85;100.00;100395.53;4963807;28;20055;-80
2023/03/21 10:43:20;;;;;;;1.00;0.70;;;;;;;4.81;100.00;100395.41;4966259;28;20457;-79
2023/03/21 10:45:49;;;;;;;3.25;1.02;;;;;;;4.81;100.00;100395.41;4970277;28;20074;-79
2023/03/21 10:48:19;;;;;;;2.40;0.50;;;;;;;4.78;100.00;100389.25;4962268;28;20047;-80
2023/03/21 10:50:49;;;;;;;2.78;1.30;;;;;;;4.73;100.00;100378.78;4963117;28;20062;-80
2023/03/21 10:53:22;;;;;;;2.08;0.93;;;;;;;4.72;100.00;100382.16;4963337;28;20779;-79
2023/03/21 10:55:55;;;;;;;2.35;0.90;;;;;;;4.71;100.00;100380.38;4966787;28;20047;-80
2023/03/21 10:58:27;;;;;;;1.17;0.80;;;;;;;4.67;100.00;100377.63;4962740;28;20644;-79
2023/03/21 11:00:58;;;;;;;2.70;0.98;;;;;;;4.63;100.00;100381.72;4965062;28;20051;-79
2023/03/21 11:03:31;;;;;;;1.65;1.05;;;;;;;4.59;100.00;100382.38;4967718;28;20065;-80
2023/03/21 11:06:04;;;;;;;1.50;0.95;;;;;;;4.55;100.00;100378.78;4967109;28;20516;-80
2023/03/21 11:08:40;;;;;;;2.47;1.05;;;;;;;4.39;100.00;100359.25;4968548;28;20043;-80
2023/03/21 11:11:19;;;;;;;4.35;1.00;;;;;;;4.48;100.00;100368.19;4964942;28;20421;-79
2023/03/21 11:13:58;;;;;;;1.45;0.90;;;;;;;4.44;100.00;100362.03;4964943;28;20113;-79
2023/03/21 11:16:33;;;;;;;1.30;0.95;;;;;;;4.42;100.00;100361.06;4963913;28;20711;-78
2023/03/21 11:19:04;;;;;;;2.00;1.42;;;;;;;4.39;100.00;100354.13;4964507;28;20043;-79
2023/03/21 11:21:38;;;;;;;1.92;0.82;;;;;;;4.35;100.00;100348.78;4967679;28;20055;-79
2023/03/21 11:24:13;;;;;;;2.58;1.23;;;;;;;4.34;100.00;100345.34;4964045;28;20406;-78
2023/03/21 11:26:46;;;;;;;1.63;0.88;;;;;;;4.30;100.00;100348.56;4946448;28;20063;-80
2023/03/21 11:29:30;;;;;;;2.22;1.27;;;;;;;4.31;100.00;100355.47;4947112;29;20058;-80
2023/03/21 11:32:10;;;;;;;2.97;1.10;;;;;;;4.29;100.00;100349.38;4942146;29;20178;-80
2023/03/21 11:34:47;;;;;;;1.05;0.80;;;;;;;4.31;100.00;100345.22;4948802;28;20055;-80
2023/03/21 11:37:28;;;;;;;1.05;0.70;;;;;;;4.32;100.00;100343.53;4943573;29;20062;-78
2023/03/21 11:40:06;;;;;;;3.58;1.00;;;;;;;4.31;100.00;100332.41;4945832;29;20512;-78
2023/03/21 11:42:46;;;;;;;2.78;1.25;;;;;;;4.30;100.00;100335.75;4959534;29;20050;-80
2023/03/21 11:45:18;;;;;;;2.05;0.90;;;;;;;4.26;100.00;100327.84;4945698;28;20047;-80
2023/03/21 11:47:48;;;;;;;2.38;0.73;;;;;;;4.24;100.00;100338.03;4946208;29;20557;-81
2023/03/21 11:50:26;;;;;;;2.03;0.80;;;;;;;4.16;100.00;100324.84;4944437;28;20065;-80